Time;durP1;ratioP1;P1;durP2;ratioP2;P2;SDS_P1;SDS_P2;PMS_P1;PMS_P2;Temp;Humidity;BMP_temperature;BMP_pressure;BME280_temperature;BME280_humidity;BME280_pressure;Samples;Min_cycle;Max_cycle;Signal;HPM_P1;HPM_P2
2022/03/06 00:01:44;;;;;;;16.05;11.85;;;;;;;0.16;63.01;101572.66;5033975;27;20041;-69
2022/03/06 00:04:09;;;;;;;15.77;11.57;;;;;;;0.22;63.22;101577.66;5035875;27;20017;-68
2022/03/06 00:06:34;;;;;;;15.95;11.52;;;;;;;0.16;63.35;101580.47;5036252;27;20219;-69
2022/03/06 00:09:00;;;;;;;14.70;11.45;;;;;;;0.08;63.44;101579.84;5032065;27;20016;-69
2022/03/06 00:11:25;;;;;;;16.35;12.10;;;;;;;0.15;62.72;101578.75;5035131;27;20001;-72
2022/03/06 00:13:51;;;;;;;15.50;11.75;;;;;;;0.13;62.50;101581.41;5018990;27;20316;-69
2022/03/06 00:16:16;;;;;;;15.05;11.57;;;;;;;0.12;62.91;101578.84;5001363;27;20570;-72
2022/03/06 00:18:41;;;;;;;13.68;11.02;;;;;;;-0.01;62.95;101575.78;5016423;27;20637;-69
2022/03/06 00:21:07;;;;;;;17.20;11.52;;;;;;;0.02;62.95;101574.84;5036154;27;20052;-70
2022/03/06 00:23:33;;;;;;;14.95;11.43;;;;;;;-0.01;62.75;101571.41;5036160;27;20013;-70
2022/03/06 00:25:59;;;;;;;13.60;11.05;;;;;;;-0.04;63.34;101568.91;4999229;27;20519;-70
2022/03/06 00:28:24;;;;;;;14.32;11.48;;;;;;;-0.09;63.56;101576.00;5027034;27;20048;-69
2022/03/06 00:30:50;;;;;;;13.73;11.18;;;;;;;-0.04;63.54;101574.13;5027033;27;20900;-70
2022/03/06 00:33:15;;;;;;;13.10;10.70;;;;;;;-0.12;64.07;101568.31;5009930;27;20373;-70
2022/03/06 00:35:40;;;;;;;13.93;10.90;;;;;;;-0.23;64.39;101567.78;5016476;27;20013;-70
2022/03/06 00:38:06;;;;;;;16.75;11.85;;;;;;;-0.30;64.88;101569.72;5016259;27;20109;-71
2022/03/06 00:40:31;;;;;;;15.68;12.18;;;;;;;-0.29;65.04;101567.97;5013273;27;20033;-71
2022/03/06 00:42:56;;;;;;;13.65;10.82;;;;;;;-0.25;65.32;101578.25;5014100;27;20032;-69
2022/03/06 00:45:22;;;;;;;14.25;11.23;;;;;;;-0.26;65.49;101570.50;5035514;27;20395;-69
2022/03/06 00:47:47;;;;;;;13.35;10.93;;;;;;;-0.34;65.68;101565.50;5035538;27;20205;-69
2022/03/06 00:50:13;;;;;;;15.43;11.75;;;;;;;-0.39;65.86;101581.25;5031348;27;20522;-70
2022/03/06 00:52:39;;;;;;;14.40;11.85;;;;;;;-0.36;65.87;101581.16;5033134;27;20085;-71
2022/03/06 00:55:04;;;;;;;15.15;11.60;;;;;;;-0.29;65.75;101578.38;5053819;27;20081;-71
2022/03/06 00:57:30;;;;;;;14.27;11.43;;;;;;;-0.36;66.04;101577.72;5044097;27;20808;-69
2022/03/06 00:59:55;;;;;;;15.10;11.68;;;;;;;-0.36;66.26;101588.94;5035719;27;20008;-69
2022/03/06 01:02:20;;;;;;;15.60;12.15;;;;;;;-0.41;66.59;101584.78;5031723;27;20852;-70
2022/03/06 01:04:46;;;;;;;21.05;11.55;;;;;;;-0.46;66.80;101587.53;5032701;27;20024;-69
2022/03/06 01:07:11;;;;;;;19.38;12.43;;;;;;;-0.52;66.88;101572.97;5044319;27;20031;-69
2022/03/06 01:09:37;;;;;;;15.65;11.32;;;;;;;-0.58;67.00;101587.88;5035466;27;20044;-68
2022/03/06 01:12:02;;;;;;;15.02;11.00;;;;;;;-0.50;66.65;101590.28;5033814;27;20210;-69
2022/03/06 01:14:28;;;;;;;14.23;11.70;;;;;;;-0.57;66.74;101585.25;5036451;27;20024;-70
2022/03/06 01:16:53;;;;;;;16.65;12.82;;;;;;;-0.60;66.64;101584.50;5016301;27;20017;-71
2022/03/06 01:19:19;;;;;;;14.93;11.60;;;;;;;-0.67;66.39;101591.59;5037208;27;20306;-71
2022/03/06 01:21:45;;;;;;;14.63;11.15;;;;;;;-0.61;66.15;101598.38;5034416;27;20043;-69
2022/03/06 01:24:10;;;;;;;17.42;12.05;;;;;;;-0.66;66.03;101595.03;5041179;27;20988;-69
2022/03/06 01:26:35;;;;;;;14.82;11.85;;;;;;;-0.70;65.99;101600.34;5036856;27;20129;-69
2022/03/06 01:29:01;;;;;;;16.50;12.43;;;;;;;-0.63;66.11;101600.19;5034716;27;20933;-70
2022/03/06 01:31:26;;;;;;;16.48;12.20;;;;;;;-0.71;66.08;101606.41;5014475;28;20025;-70
2022/03/06 01:33:52;;;;;;;16.00;12.15;;;;;;;-0.70;66.08;101595.13;4979746;28;20106;-72
2022/03/06 01:36:17;;;;;;;15.68;12.05;;;;;;;-0.64;65.89;101594.09;5028619;27;20051;-71
2022/03/06 01:38:42;;;;;;;16.45;12.55;;;;;;;-0.70;65.50;101602.09;5037477;27;20013;-71
2022/03/06 01:41:08;;;;;;;15.90;11.77;;;;;;;-0.69;65.59;101601.22;5039059;27;20629;-71
2022/03/06 01:43:33;;;;;;;15.65;12.10;;;;;;;-0.70;65.66;101600.34;5038390;27;20146;-71
2022/03/06 01:45:59;;;;;;;17.45;12.88;;;;;;;-0.72;65.89;101603.88;5021412;27;20009;-72
2022/03/06 01:48:24;;;;;;;17.42;13.10;;;;;;;-0.73;66.16;101604.78;5020618;27;20075;-69
2022/03/06 01:50:49;;;;;;;17.73;12.50;;;;;;;-0.70;65.68;101600.34;5038191;27;20028;-69
2022/03/06 01:53:15;;;;;;;18.13;13.13;;;;;;;-0.70;65.56;101613.31;5037971;27;20187;-69
2022/03/06 01:55:42;;;;;;;17.95;13.05;;;;;;;-0.80;65.88;101611.88;5037292;27;20008;-69
2022/03/06 01:58:09;;;;;;;19.52;13.35;;;;;;;-0.76;66.25;101600.50;5019641;27;20020;-69
2022/03/06 02:00:38;;;;;;;18.80;13.57;;;;;;;-0.81;66.28;101615.38;5037353;27;20034;-69
2022/03/06 02:03:03;;;;;;;18.30;13.93;;;;;;;-0.81;66.31;101602.38;5038950;27;20021;-72
2022/03/06 02:05:29;;;;;;;18.13;13.50;;;;;;;-0.78;66.00;101596.25;5004960;27;20020;-69
2022/03/06 02:07:54;;;;;;;16.95;13.38;;;;;;;-0.85;66.74;101605.94;5043915;27;20047;-71
2022/03/06 02:10:19;;;;;;;17.80;13.48;;;;;;;-0.82;66.79;101600.66;5050055;27;20268;-69
2022/03/06 02:12:46;;;;;;;17.13;13.38;;;;;;;-0.81;67.16;101602.38;5042890;27;20270;-69
2022/03/06 02:15:12;;;;;;;17.90;13.13;;;;;;;-0.75;66.86;101602.22;5038752;27;20024;-72
2022/03/06 02:17:37;;;;;;;16.83;13.25;;;;;;;-0.79;66.66;101605.81;5034658;27;20403;-70
2022/03/06 02:20:29;;;;;;;17.90;12.68;;;;;;;-0.82;66.98;101600.66;5062526;27;20009;-69
2022/03/06 02:22:56;;;;;;;17.63;13.20;;;;;;;-0.84;67.02;101610.28;5057484;27;20349;-68
2022/03/06 02:25:29;;;;;;;15.50;12.75;;;;;;;-0.90;67.20;101610.44;5061628;27;20028;-69
2022/03/06 02:27:56;;;;;;;16.30;12.50;;;;;;;-0.96;67.54;101608.88;5044458;27;20152;-70
2022/03/06 02:30:23;;;;;;;17.08;12.68;;;;;;;-0.92;67.36;101602.66;5044336;27;20159;-69
2022/03/06 02:32:49;;;;;;;22.40;13.55;;;;;;;-1.02;67.34;101605.56;5041724;27;20140;-68
2022/03/06 02:35:15;;;;;;;20.08;13.32;;;;;;;-0.98;67.20;101609.78;5009255;27;20052;-68
2022/03/06 02:37:40;;;;;;;17.55;13.13;;;;;;;-1.00;67.09;101611.56;5038111;27;20990;-71
2022/03/06 02:40:07;;;;;;;18.52;13.32;;;;;;;-1.05;66.25;101603.91;5025190;27;20021;-70
2022/03/06 02:42:35;;;;;;;17.70;12.85;;;;;;;-1.14;67.05;101607.59;5010987;27;20001;-69
2022/03/06 02:45:09;;;;;;;18.05;13.52;;;;;;;-1.07;66.74;101605.69;5045031;27;20348;-69
2022/03/06 02:47:34;;;;;;;17.20;13.00;;;;;;;-1.15;66.83;101605.88;5036589;27;20029;-69
2022/03/06 02:50:02;;;;;;;18.40;13.77;;;;;;;-1.14;66.67;101607.59;5067659;27;20039;-70
2022/03/06 02:52:28;;;;;;;19.50;12.73;;;;;;;-1.14;66.30;101602.41;5016905;27;20799;-71
2022/03/06 02:54:53;;;;;;;20.90;13.18;;;;;;;-1.13;66.96;101606.72;5022678;28;20025;-71
2022/03/06 02:57:19;;;;;;;19.70;12.88;;;;;;;-1.15;67.03;101602.44;5008101;28;20020;-71
2022/03/06 02:59:44;;;;;;;17.80;13.07;;;;;;;-1.14;67.02;101598.94;5007767;28;20032;-71
2022/03/06 03:02:10;;;;;;;17.88;13.27;;;;;;;-1.10;67.01;101601.44;5019322;28;20013;-70
2022/03/06 03:04:38;;;;;;;17.17;12.88;;;;;;;-1.09;66.99;101604.88;5045771;27;20005;-69
2022/03/06 03:07:04;;;;;;;17.45;13.00;;;;;;;-1.14;67.47;101601.53;5023448;27;20069;-74
2022/03/06 03:09:30;;;;;;;17.73;13.27;;;;;;;-1.19;67.49;101593.88;5040470;27;20025;-69
2022/03/06 03:11:55;;;;;;;18.17;13.25;;;;;;;-1.13;67.65;101598.94;5042350;27;20125;-70
2022/03/06 03:14:21;;;;;;;18.20;13.27;;;;;;;-1.21;67.87;101598.28;5031427;28;20041;-69
2022/03/06 03:16:46;;;;;;;18.15;13.63;;;;;;;-0.95;67.33;101594.97;5012486;27;20028;-69
2022/03/06 03:19:11;;;;;;;16.67;13.18;;;;;;;-0.63;66.19;101601.03;5012671;28;20102;-69
2022/03/06 03:21:37;;;;;;;16.73;12.65;;;;;;;-0.50;65.54;101598.91;5010257;28;20025;-68
2022/03/06 03:24:02;;;;;;;17.13;13.18;;;;;;;-0.60;66.05;101603.53;5010090;28;21009;-69
2022/03/06 03:26:28;;;;;;;16.98;13.68;;;;;;;-0.83;66.67;101606.78;5010611;28;20103;-71
2022/03/06 03:28:53;;;;;;;19.10;13.25;;;;;;;-0.75;67.00;101607.44;4980349;28;20025;-71
2022/03/06 03:31:18;;;;;;;16.45;12.57;;;;;;;-0.80;67.19;101606.69;4961585;28;20006;-70
2022/03/06 03:33:44;;;;;;;17.55;12.73;;;;;;;-0.87;67.60;101607.75;4995287;28;20033;-70
2022/03/06 03:36:09;;;;;;;17.50;12.95;;;;;;;-0.83;67.76;101611.97;4978488;28;20021;-68
2022/03/06 03:38:35;;;;;;;17.27;12.95;;;;;;;-0.82;68.06;101613.66;5011609;28;20799;-69
2022/03/06 03:41:01;;;;;;;15.63;12.65;;;;;;;-0.83;68.35;101614.56;4994967;28;20339;-70
2022/03/06 03:43:26;;;;;;;19.95;12.52;;;;;;;-0.73;68.04;101613.41;4958533;28;20009;-72
2022/03/06 03:45:52;;;;;;;17.58;12.73;;;;;;;-0.73;68.29;101616.03;5012489;27;20057;-69
2022/03/06 03:48:18;;;;;;;16.75;13.40;;;;;;;-0.73;68.61;101613.41;4976544;28;20037;-69
2022/03/06 03:50:43;;;;;;;17.33;12.90;;;;;;;-0.77;69.02;101622.19;5007782;28;20036;-68
2022/03/06 03:53:09;;;;;;;17.85;13.15;;;;;;;-0.70;68.80;101620.28;4973068;28;20540;-70
2022/03/06 03:55:34;;;;;;;17.77;12.43;;;;;;;-0.39;67.68;101624.63;4989302;28;20172;-70
2022/03/06 03:57:59;;;;;;;16.08;12.30;;;;;;;-0.43;67.79;101618.63;4995831;28;20017;-70
2022/03/06 04:00:25;;;;;;;16.27;12.10;;;;;;;-0.42;67.60;101617.75;4973771;28;20068;-72
2022/03/06 04:02:50;;;;;;;18.65;13.57;;;;;;;-0.44;67.79;101616.09;4990970;28;20064;-69
2022/03/06 04:05:15;;;;;;;15.88;12.07;;;;;;;-0.48;68.22;101624.88;5010869;28;20082;-69
2022/03/06 04:07:41;;;;;;;17.27;12.38;;;;;;;-0.21;67.22;101625.84;5017497;28;20436;-71
2022/03/06 04:10:06;;;;;;;15.75;11.95;;;;;;;-0.46;68.07;101623.09;5010834;28;20881;-71
2022/03/06 04:12:32;;;;;;;15.55;12.20;;;;;;;-0.48;68.96;101623.13;4991063;28;20551;-71
2022/03/06 04:14:57;;;;;;;17.35;12.82;;;;;;;-0.38;68.64;101624.56;4954271;28;20022;-73
2022/03/06 04:17:22;;;;;;;16.42;12.50;;;;;;;-0.48;68.45;101628.34;4956399;28;20025;-71
2022/03/06 04:19:48;;;;;;;16.63;12.32;;;;;;;-0.48;68.43;101625.75;4992593;28;20033;-69
2022/03/06 04:22:13;;;;;;;16.77;12.10;;;;;;;-0.38;68.03;101621.97;4988933;28;20923;-69
2022/03/06 04:24:38;;;;;;;15.45;11.77;;;;;;;-0.42;68.48;101633.34;4993259;28;20386;-70
2022/03/06 04:27:04;;;;;;;16.45;12.77;;;;;;;-0.45;68.79;101630.84;4959874;28;20014;-70
2022/03/06 04:29:30;;;;;;;16.73;12.40;;;;;;;-0.42;68.93;101641.16;5015683;28;20025;-69
2022/03/06 04:31:55;;;;;;;16.63;12.38;;;;;;;-0.32;68.58;101640.88;5013185;28;20401;-69
2022/03/06 04:34:21;;;;;;;15.73;12.38;;;;;;;-0.08;67.84;101644.53;5017521;28;20009;-68
2022/03/06 04:36:46;;;;;;;15.60;12.60;;;;;;;-0.09;67.39;101643.66;5016018;28;20470;-71
2022/03/06 04:39:12;;;;;;;16.75;12.38;;;;;;;-0.20;68.17;101640.53;4999272;28;20036;-72
2022/03/06 04:41:37;;;;;;;15.35;12.05;;;;;;;-0.21;68.72;101644.03;5027215;27;20021;-72
2022/03/06 04:44:03;;;;;;;15.90;12.25;;;;;;;-0.23;68.29;101641.47;5038323;27;20025;-70
2022/03/06 04:46:28;;;;;;;14.70;12.40;;;;;;;-0.20;67.03;101661.31;5037793;27;20056;-71
2022/03/06 04:48:53;;;;;;;16.08;12.10;;;;;;;-0.22;67.19;101658.78;5020727;27;20452;-71
2022/03/06 04:51:19;;;;;;;15.93;12.02;;;;;;;-0.13;66.71;101662.00;5040393;27;20013;-72
2022/03/06 04:53:44;;;;;;;15.85;12.45;;;;;;;-0.20;67.27;101659.59;5020120;27;20027;-71
2022/03/06 04:56:09;;;;;;;16.67;12.70;;;;;;;-0.23;68.17;101656.22;5003718;27;20032;-70
2022/03/06 04:58:35;;;;;;;15.68;12.02;;;;;;;-0.23;68.33;101654.47;5026068;27;20133;-70
2022/03/06 05:01:00;;;;;;;16.77;12.27;;;;;;;-0.23;68.45;101645.81;5033550;27;20180;-69
2022/03/06 05:03:26;;;;;;;15.50;12.05;;;;;;;-0.22;67.93;101653.56;5020155;28;20680;-72
2022/03/06 05:05:51;;;;;;;17.52;12.65;;;;;;;-0.21;66.75;101657.88;5001792;27;20032;-70
2022/03/06 05:08:18;;;;;;;16.13;12.57;;;;;;;-0.26;67.13;101656.31;5014733;27;20006;-71
2022/03/06 05:10:43;;;;;;;17.60;12.73;;;;;;;-0.20;67.28;101666.53;5040648;27;20037;-69
2022/03/06 05:13:09;;;;;;;17.27;12.75;;;;;;;-0.13;67.52;101664.59;5045631;27;20025;-69
2022/03/06 05:15:34;;;;;;;18.00;12.68;;;;;;;-0.21;68.14;101659.66;5042066;27;20264;-71
2022/03/06 05:18:01;;;;;;;17.88;13.13;;;;;;;-0.11;68.01;101653.28;5007441;27;20455;-72
2022/03/06 05:20:26;;;;;;;15.95;12.88;;;;;;;-0.09;68.01;101661.03;5043213;27;20090;-71
2022/03/06 05:22:51;;;;;;;17.23;12.73;;;;;;;-0.01;68.28;101661.66;5045803;27;20022;-69
2022/03/06 05:25:17;;;;;;;19.00;13.00;;;;;;;0.08;67.72;101668.31;5045598;27;20009;-69
2022/03/06 05:27:42;;;;;;;15.80;12.50;;;;;;;0.11;67.45;101655.22;5038315;27;20060;-69
2022/03/06 05:30:08;;;;;;;16.40;12.85;;;;;;;0.04;67.44;101662.34;5044907;27;20871;-72
2022/03/06 05:32:34;;;;;;;16.88;12.55;;;;;;;0.06;67.98;101662.31;5028879;27;20025;-69
2022/03/06 05:34:59;;;;;;;17.73;12.43;;;;;;;-0.03;67.81;101661.69;5040232;27;20020;-70
2022/03/06 05:37:24;;;;;;;15.77;12.60;;;;;;;0.04;68.16;101659.75;5060040;27;20005;-70
2022/03/06 05:39:50;;;;;;;15.30;11.88;;;;;;;0.04;67.56;101664.09;5054393;27;20138;-71
2022/03/06 05:42:16;;;;;;;16.17;12.70;;;;;;;-0.03;68.03;101664.31;5018117;27;20029;-71
2022/03/06 05:44:42;;;;;;;18.40;12.27;;;;;;;-0.05;68.31;101663.47;4991378;27;20006;-70
2022/03/06 05:47:07;;;;;;;18.80;12.95;;;;;;;0.14;68.32;101655.09;5013123;28;20098;-70
2022/03/06 05:49:32;;;;;;;16.13;12.27;;;;;;;0.18;68.51;101659.31;4995942;28;20033;-68
2022/03/06 05:51:58;;;;;;;16.80;11.63;;;;;;;0.15;68.62;101659.44;5018847;27;20016;-71
2022/03/06 05:54:23;;;;;;;17.92;12.10;;;;;;;0.07;68.18;101679.63;5023328;27;20976;-71
2022/03/06 05:56:48;;;;;;;18.98;12.93;;;;;;;0.02;68.13;101684.13;5030521;27;20243;-70
2022/03/06 05:59:14;;;;;;;16.15;12.73;;;;;;;0.21;67.97;101682.66;5008569;27;20009;-69
2022/03/06 06:01:39;;;;;;;15.77;12.48;;;;;;;0.16;68.19;101680.19;5034770;27;20029;-69
2022/03/06 06:04:04;;;;;;;15.65;12.20;;;;;;;0.12;67.57;101681.19;5015972;27;20319;-69
2022/03/06 06:06:30;;;;;;;16.58;12.52;;;;;;;0.01;68.09;101690.22;5034832;27;20096;-68
2022/03/06 06:08:55;;;;;;;16.23;12.27;;;;;;;-0.06;68.28;101682.59;5035596;27;20012;-71
2022/03/06 06:11:21;;;;;;;16.15;13.13;;;;;;;0.06;68.17;101697.00;5021747;27;20114;-68
2022/03/06 06:13:46;;;;;;;15.70;12.23;;;;;;;0.14;68.17;101691.53;5038891;27;21532;-68
2022/03/06 06:16:11;;;;;;;17.70;12.65;;;;;;;0.12;67.42;101698.56;5035285;27;20103;-68
2022/03/06 06:18:37;;;;;;;17.35;13.10;;;;;;;0.08;68.07;101705.59;5037652;27;20032;-69
2022/03/06 06:21:03;;;;;;;15.40;12.15;;;;;;;0.16;67.73;101705.38;5051822;27;20034;-70
2022/03/06 06:23:28;;;;;;;16.08;12.40;;;;;;;0.05;67.86;101703.09;5052391;27;20494;-69
2022/03/06 06:25:53;;;;;;;15.23;12.40;;;;;;;0.24;66.90;101702.53;5033814;27;20439;-68
2022/03/06 06:28:19;;;;;;;17.40;12.73;;;;;;;0.24;66.90;101708.63;5005242;27;20032;-71
2022/03/06 06:30:44;;;;;;;19.52;12.63;;;;;;;0.08;67.18;101702.16;4981266;27;20021;-71
2022/03/06 06:33:10;;;;;;;16.77;12.82;;;;;;;-0.05;67.81;101719.88;4997203;27;20025;-70
2022/03/06 06:35:35;;;;;;;15.90;12.60;;;;;;;-0.09;67.79;101719.09;5028733;27;20897;-70
2022/03/06 06:38:01;;;;;;;17.20;12.75;;;;;;;-0.17;68.16;101731.47;5021248;27;20510;-68
2022/03/06 06:40:26;;;;;;;17.33;12.75;;;;;;;-0.05;68.48;101728.53;4992838;28;20022;-71
2022/03/06 06:42:52;;;;;;;16.92;13.20;;;;;;;-0.03;67.85;101731.06;4990222;28;20036;-69
2022/03/06 06:45:18;;;;;;;16.75;13.05;;;;;;;-0.02;68.06;101732.78;4975212;28;20030;-70
2022/03/06 06:47:43;;;;;;;16.23;12.30;;;;;;;0.17;67.66;101728.75;4992135;28;20032;-70
2022/03/06 06:50:08;;;;;;;16.73;12.23;;;;;;;0.43;67.18;101741.91;4992098;28;20843;-70
2022/03/06 06:52:34;;;;;;;16.27;12.40;;;;;;;0.26;67.09;101748.44;5010401;27;20110;-71
2022/03/06 06:54:59;;;;;;;17.15;12.18;;;;;;;0.30;67.83;101739.66;5010941;28;21129;-70
2022/03/06 06:57:25;;;;;;;16.58;12.02;;;;;;;0.29;67.46;101742.31;4992904;28;20013;-72
2022/03/06 06:59:50;;;;;;;17.85;12.30;;;;;;;0.36;67.07;101748.19;4994267;28;20017;-70
2022/03/06 07:02:15;;;;;;;15.27;12.35;;;;;;;0.37;67.49;101749.88;4992863;28;20098;-71
2022/03/06 07:04:41;;;;;;;15.80;11.95;;;;;;;0.54;67.40;101755.44;5011982;28;20021;-69
2022/03/06 07:07:06;;;;;;;16.02;12.15;;;;;;;0.50;67.30;101761.63;5020591;27;20330;-70
2022/03/06 07:09:32;;;;;;;18.40;12.45;;;;;;;0.61;66.59;101759.56;5025801;27;20040;-69
2022/03/06 07:11:57;;;;;;;17.85;13.35;;;;;;;0.64;66.81;101746.44;4992633;27;20017;-68
2022/03/06 07:14:22;;;;;;;17.65;13.38;;;;;;;0.66;66.76;101757.66;4996490;27;20426;-70
2022/03/06 07:16:48;;;;;;;18.35;14.02;;;;;;;0.64;67.35;101753.41;5033554;27;20078;-68
2022/03/06 07:19:13;;;;;;;16.15;12.45;;;;;;;0.56;68.12;101758.84;5034070;27;20044;-68
2022/03/06 07:21:39;;;;;;;14.25;11.45;;;;;;;0.65;68.68;101761.16;5032960;27;20114;-69
2022/03/06 07:24:05;;;;;;;17.08;13.73;;;;;;;0.89;68.00;101771.72;5014446;27;20900;-70
2022/03/06 07:26:31;;;;;;;18.70;13.27;;;;;;;0.90;67.13;101770.78;5014470;27;20001;-70
2022/03/06 07:28:56;;;;;;;17.10;13.25;;;;;;;0.92;66.77;101770.78;4997891;28;20041;-69
2022/03/06 07:31:21;;;;;;;18.02;13.52;;;;;;;0.95;66.17;101778.50;5013630;27;20098;-70
2022/03/06 07:33:47;;;;;;;18.45;13.50;;;;;;;0.89;66.46;101763.03;5016569;28;20029;-71
2022/03/06 07:36:12;;;;;;;16.48;12.38;;;;;;;1.11;66.55;101771.03;4996122;28;20400;-69
2022/03/06 07:38:38;;;;;;;14.68;12.40;;;;;;;1.20;65.41;101773.34;4993612;28;20982;-68
2022/03/06 07:41:03;;;;;;;18.08;13.23;;;;;;;1.43;65.04;101776.94;4999598;28;20033;-69
2022/03/06 07:43:28;;;;;;;17.45;13.32;;;;;;;1.37;65.54;101786.66;4997493;28;20013;-68
2022/03/06 07:45:54;;;;;;;17.98;13.90;;;;;;;1.35;64.89;101782.38;5033615;27;20024;-68
2022/03/06 07:48:19;;;;;;;20.02;15.50;;;;;;;1.56;64.56;101787.78;5034311;28;20348;-69
2022/03/06 07:50:46;;;;;;;17.65;14.10;;;;;;;1.61;64.23;101789.34;5015719;28;21157;-70
2022/03/06 07:53:11;;;;;;;22.67;15.23;;;;;;;1.63;63.64;101782.28;5029935;28;20829;-69
2022/03/06 07:55:36;;;;;;;18.42;14.70;;;;;;;1.93;61.81;101794.31;5015121;28;20112;-69
2022/03/06 07:58:02;;;;;;;18.20;14.63;;;;;;;1.82;61.88;101794.69;5022559;27;20091;-69
2022/03/06 08:00:27;;;;;;;19.45;14.85;;;;;;;1.96;62.40;101805.50;5014427;28;20029;-69
2022/03/06 08:02:55;;;;;;;18.90;14.82;;;;;;;2.08;62.03;101798.16;5015194;28;20372;-69
2022/03/06 08:05:21;;;;;;;23.83;15.32;;;;;;;2.13;61.73;101801.41;4998274;27;20152;-70
2022/03/06 08:07:46;;;;;;;18.48;14.98;;;;;;;2.21;61.05;101800.25;5024002;28;20987;-69
2022/03/06 08:10:11;;;;;;;18.98;15.05;;;;;;;2.25;60.57;101800.97;5035061;27;20409;-71
2022/03/06 08:12:37;;;;;;;21.70;16.10;;;;;;;2.42;60.47;101809.94;5035236;28;20021;-69
2022/03/06 08:15:03;;;;;;;20.00;14.88;;;;;;;2.50;59.97;101794.84;5000456;28;20993;-69
2022/03/06 08:17:28;;;;;;;19.15;14.85;;;;;;;2.53;59.04;101797.31;5022417;27;20125;-69
2022/03/06 08:19:54;;;;;;;19.92;14.93;;;;;;;2.66;58.61;101795.09;5022482;27;20021;-69
2022/03/06 08:22:21;;;;;;;19.48;14.60;;;;;;;2.80;58.48;101807.63;5041851;27;20098;-68
2022/03/06 08:24:46;;;;;;;19.75;15.13;;;;;;;2.99;58.30;101795.53;5027149;27;20024;-69
2022/03/06 08:27:12;;;;;;;19.63;15.65;;;;;;;3.16;57.97;101805.31;5018837;28;20047;-69
2022/03/06 08:29:37;;;;;;;20.40;15.38;;;;;;;3.36;58.03;101806.25;4990493;28;20033;-70
2022/03/06 08:32:03;;;;;;;20.38;15.77;;;;;;;3.66;56.29;101798.00;5041699;27;20005;-70
2022/03/06 08:34:28;;;;;;;21.88;16.67;;;;;;;3.73;55.97;101809.91;5046705;27;20530;-70
2022/03/06 08:36:53;;;;;;;22.85;16.10;;;;;;;3.85;56.00;101809.38;5017541;27;20084;-68
2022/03/06 08:39:19;;;;;;;20.55;15.52;;;;;;;4.00;55.48;101815.72;4997458;28;20026;-70
2022/03/06 08:41:44;;;;;;;24.23;16.42;;;;;;;4.30;55.14;101808.25;5019740;27;20016;-73
2022/03/06 08:44:10;;;;;;;21.33;15.68;;;;;;;4.39;54.63;101809.59;5062769;27;20053;-69
2022/03/06 08:46:35;;;;;;;19.92;15.43;;;;;;;4.38;52.97;101809.69;5052025;27;20275;-68
2022/03/06 08:49:00;;;;;;;19.80;15.98;;;;;;;4.57;53.69;101814.91;5001413;27;20044;-68
2022/03/06 08:51:26;;;;;;;18.55;14.57;;;;;;;4.77;52.25;101809.59;5019563;27;20012;-70
2022/03/06 08:53:51;;;;;;;22.08;16.23;;;;;;;4.99;52.85;101816.41;5001869;27;20093;-72
2022/03/06 08:56:17;;;;;;;21.33;16.00;;;;;;;5.16;51.18;101812.97;5036419;27;20024;-70
2022/03/06 08:58:42;;;;;;;19.70;15.43;;;;;;;5.34;49.75;101813.84;5018809;27;20033;-71
2022/03/06 09:01:07;;;;;;;18.90;15.15;;;;;;;5.61;50.61;101821.25;5030505;27;20037;-70
2022/03/06 09:03:33;;;;;;;18.98;15.00;;;;;;;5.76;49.97;101809.97;5034973;27;20025;-70
2022/03/06 09:05:58;;;;;;;18.83;14.98;;;;;;;6.40;49.08;101814.56;5030312;27;20028;-70
2022/03/06 09:08:23;;;;;;;19.15;15.52;;;;;;;6.83;47.56;101815.66;4978169;27;20013;-70
2022/03/06 09:10:49;;;;;;;20.85;14.38;;;;;;;7.26;46.65;101819.44;4994190;27;20051;-70
2022/03/06 09:13:14;;;;;;;19.02;15.52;;;;;;;7.62;45.73;101815.59;5028458;27;20030;-69
2022/03/06 09:15:39;;;;;;;18.17;15.23;;;;;;;8.07;46.17;101808.47;5030527;27;20307;-69
2022/03/06 09:18:05;;;;;;;16.02;13.68;;;;;;;8.06;42.13;101809.41;5035263;27;20100;-70
2022/03/06 09:20:30;;;;;;;16.73;13.82;;;;;;;8.56;42.96;101815.16;4997080;27;20781;-70
2022/03/06 09:22:56;;;;;;;17.35;13.57;;;;;;;8.76;42.06;101813.88;4976705;27;20028;-70
2022/03/06 09:25:21;;;;;;;15.95;14.15;;;;;;;8.46;41.02;101812.25;4997863;27;20029;-69
2022/03/06 09:27:46;;;;;;;17.42;13.70;;;;;;;8.45;41.02;101813.19;4996911;28;20180;-69
2022/03/06 09:30:12;;;;;;;16.95;14.32;;;;;;;8.80;41.08;101815.38;4995864;27;20013;-70
2022/03/06 09:32:38;;;;;;;15.38;13.02;;;;;;;8.98;39.82;101817.75;5000491;28;20785;-71
2022/03/06 09:35:04;;;;;;;15.98;13.60;;;;;;;8.68;40.27;101813.53;5006950;28;20010;-70
2022/03/06 09:37:29;;;;;;;17.15;14.10;;;;;;;8.35;41.48;101822.59;5007591;28;20070;-69
2022/03/06 09:39:54;;;;;;;15.68;13.60;;;;;;;8.49;41.29;101830.53;5017548;28;20040;-68
2022/03/06 09:42:20;;;;;;;16.15;13.75;;;;;;;8.43;41.04;101818.53;4962373;28;20297;-68
2022/03/06 09:44:46;;;;;;;15.30;13.70;;;;;;;8.38;41.45;101811.84;4995950;28;20454;-69
2022/03/06 09:47:12;;;;;;;15.07;13.38;;;;;;;8.28;41.52;101823.91;4977397;28;20045;-70
2022/03/06 09:49:37;;;;;;;14.70;13.10;;;;;;;8.37;41.82;101818.91;4960603;28;20034;-69
2022/03/06 09:52:03;;;;;;;17.77;14.15;;;;;;;8.27;42.12;101823.06;4992711;28;20109;-69
2022/03/06 09:54:29;;;;;;;15.13;12.77;;;;;;;8.21;41.68;101816.38;5017826;28;20028;-69
2022/03/06 09:56:54;;;;;;;14.48;12.98;;;;;;;8.00;41.64;101818.53;4995565;28;20029;-68
2022/03/06 09:59:20;;;;;;;17.10;13.70;;;;;;;7.96;42.07;101808.28;4974447;28;20053;-68
2022/03/06 10:01:45;;;;;;;17.38;13.13;;;;;;;8.01;42.97;101816.75;4962544;28;20036;-69
2022/03/06 10:04:30;;;;;;;15.68;13.40;;;;;;;8.11;41.78;101812.63;4981333;28;20021;-69
2022/03/06 10:07:05;;;;;;;16.23;13.43;;;;;;;8.02;42.44;101808.78;4961522;28;20087;-67
2022/03/06 10:09:32;;;;;;;15.13;13.05;;;;;;;8.25;42.31;101809.13;4996112;28;20386;-69
2022/03/06 10:11:57;;;;;;;16.67;13.73;;;;;;;8.56;41.37;101799.34;4976967;28;20075;-69
2022/03/06 10:14:39;;;;;;;16.50;14.07;;;;;;;8.57;41.18;101803.63;4976625;28;20022;-68
2022/03/06 10:17:18;;;;;;;15.50;13.45;;;;;;;8.77;40.89;101799.72;4958333;28;20010;-69
2022/03/06 10:19:48;;;;;;;16.58;13.73;;;;;;;8.71;41.72;101805.41;4984117;28;20022;-68
2022/03/06 10:22:13;;;;;;;15.00;13.40;;;;;;;8.56;40.46;101805.44;5004994;27;20222;-70
2022/03/06 10:25:16;;;;;;;16.15;13.77;;;;;;;8.77;41.00;101805.88;4980926;27;20588;-70
2022/03/06 10:27:53;;;;;;;16.30;13.65;;;;;;;8.63;40.72;101802.41;4996595;27;20450;-70
2022/03/06 10:30:26;;;;;;;15.35;13.23;;;;;;;8.40;40.51;101800.28;4984028;28;20103;-70
2022/03/06 10:32:51;;;;;;;15.25;13.13;;;;;;;8.25;41.63;101809.13;4993234;27;20045;-69
2022/03/06 10:35:17;;;;;;;17.38;13.50;;;;;;;8.33;40.83;101811.28;4955960;28;20042;-67
2022/03/06 10:37:42;;;;;;;14.68;12.82;;;;;;;8.40;40.90;101807.31;5027678;27;20800;-68
2022/03/06 10:40:11;;;;;;;16.60;13.65;;;;;;;8.54;41.20;101807.31;4966601;28;20034;-69
2022/03/06 10:42:36;;;;;;;18.55;13.45;;;;;;;8.97;39.99;101811.66;4981346;28;20126;-69
2022/03/06 10:45:02;;;;;;;15.27;13.10;;;;;;;9.30;39.18;101806.88;5010448;28;20041;-70
2022/03/06 10:47:27;;;;;;;14.40;12.75;;;;;;;9.23;39.38;101806.44;4967256;28;20417;-69
2022/03/06 10:50:00;;;;;;;15.25;13.27;;;;;;;9.60;39.20;101809.25;4972901;28;20388;-70
2022/03/06 10:52:25;;;;;;;14.02;12.60;;;;;;;10.65;36.56;101808.09;4986611;28;20145;-69
2022/03/06 10:54:56;;;;;;;20.08;13.07;;;;;;;10.99;35.34;101795.03;5012794;28;21071;-68
2022/03/06 10:57:22;;;;;;;15.15;13.20;;;;;;;11.18;34.69;101798.97;5001071;27;20479;-69
2022/03/06 10:59:48;;;;;;;14.77;13.18;;;;;;;10.76;35.19;101795.88;4998818;28;20415;-68
2022/03/06 11:02:13;;;;;;;13.93;12.52;;;;;;;10.62;35.76;101792.44;5018881;28;20040;-69
2022/03/06 11:04:39;;;;;;;14.35;12.82;;;;;;;11.27;34.91;101793.00;5006847;27;20496;-68
2022/03/06 11:07:04;;;;;;;14.30;12.80;;;;;;;13.32;32.25;101783.88;5013713;27;20020;-69